Time;durP1;ratioP1;P1;durP2;ratioP2;P2;SDS_P1;SDS_P2;PMS_P1;PMS_P2;Temp;Humidity;BMP_temperature;BMP_pressure;BME280_temperature;BME280_humidity;BME280_pressure;Samples;Min_cycle;Max_cycle;Signal;HPM_P1;HPM_P2
2022/05/22 00:00:14;;;;;;;8.88;4.70;;;;;;;;;;5017846;28;88033;-73
2022/05/22 00:02:41;;;;;;;6.40;4.60;;;;;;;;;;5017095;28;88520;-73
2022/05/22 00:05:08;;;;;;;8.93;5.15;;;;;;;;;;5018051;28;88697;-73
2022/05/22 00:07:36;;;;;;;12.07;5.50;;;;;;;;;;5020390;28;88940;-74
2022/05/22 00:10:04;;;;;;;7.68;4.30;;;;;;;;;;5017020;28;88424;-73
2022/05/22 00:12:30;;;;;;;9.45;5.00;;;;;;;;;;5017289;28;88846;-73
2022/05/22 00:14:57;;;;;;;6.57;4.68;;;;;;;;;;5024401;28;88670;-73
2022/05/22 00:17:23;;;;;;;11.13;4.75;;;;;;;;;;5036890;28;89735;-73
2022/05/22 00:19:49;;;;;;;8.23;4.85;;;;;;;;;;5028948;27;88027;-73
2022/05/22 00:22:17;;;;;;;7.55;4.22;;;;;;;;;;5017253;28;89793;-73
2022/05/22 00:24:43;;;;;;;8.15;4.78;;;;;;;;;;5016624;28;88719;-73
2022/05/22 00:27:10;;;;;;;10.75;5.38;;;;;;;;;;5017754;28;88026;-73
2022/05/22 00:29:37;;;;;;;9.50;4.72;;;;;;;;;;5003075;28;90500;-73
2022/05/22 00:32:03;;;;;;;8.68;4.30;;;;;;;;;;5003507;28;90728;-73
2022/05/22 00:34:30;;;;;;;6.93;4.40;;;;;;;;;;5017167;28;88374;-73
2022/05/22 00:36:56;;;;;;;8.32;4.63;;;;;;;;;;5017801;28;88692;-74
2022/05/22 00:39:23;;;;;;;8.95;4.65;;;;;;;;;;5017146;28;88140;-73
2022/05/22 00:41:51;;;;;;;5.95;4.20;;;;;;;;;;5017395;28;88838;-73
2022/05/22 00:44:17;;;;;;;9.65;4.03;;;;;;;;;;5015025;28;91625;-73
2022/05/22 00:46:44;;;;;;;11.50;4.05;;;;;;;;;;5015905;28;89607;-73
2022/05/22 00:49:11;;;;;;;7.43;4.63;;;;;;;;;;5018661;28;89939;-73
2022/05/22 00:51:56;;;;;;;9.23;5.07;;;;;;;;;;5018226;28;90093;-74
2022/05/22 00:54:33;;;;;;;10.38;4.47;;;;;;;;;;5017161;28;88406;-73
2022/05/22 00:57:09;;;;;;;7.60;4.75;;;;;;;;;;5015444;28;92348;-73
2022/05/22 00:59:47;;;;;;;8.45;4.63;;;;;;;;;;5014987;28;89307;-73
2022/05/22 01:02:15;;;;;;;10.02;4.75;;;;;;;;;;5017563;28;87998;-74
2022/05/22 01:04:42;;;;;;;7.88;4.43;;;;;;;;;;5016052;28;90415;-74
2022/05/22 01:07:09;;;;;;;12.07;4.82;;;;;;;;;;5015524;28;88768;-74
2022/05/22 01:09:35;;;;;;;9.70;5.47;;;;;;;;;;5016881;28;88331;-73
2022/05/22 01:12:15;;;;;;;12.10;4.90;;;;;;;;;;5016739;28;89495;-74
2022/05/22 01:14:47;;;;;;;6.65;4.60;;;;;;;;;;5015146;28;88121;-74
2022/05/22 01:17:13;;;;;;;10.07;4.90;;;;;;;;;;5014919;28;90604;-73
2022/05/22 01:19:40;;;;;;;7.38;4.40;;;;;;;;;;5015118;28;89048;-73
2022/05/22 01:22:08;;;;;;;13.02;4.88;;;;;;;;;;5014727;28;91396;-74
2022/05/22 01:24:39;;;;;;;11.77;4.90;;;;;;;;;;5034872;28;91311;-73
2022/05/22 01:27:09;;;;;;;10.18;5.00;;;;;;;;;;5019655;28;89923;-73
2022/05/22 01:30:26;;;;;;;9.13;5.32;;;;;;;;;;5007559;28;88254;-74
2022/05/22 01:32:59;;;;;;;11.00;5.38;;;;;;;;;;5015211;28;91090;-74
2022/05/22 01:35:27;;;;;;;14.45;5.35;;;;;;;;;;5013629;28;90693;-74
2022/05/22 01:37:56;;;;;;;9.57;4.85;;;;;;;;;;5017811;28;90577;-74
2022/05/22 01:40:24;;;;;;;6.53;4.78;;;;;;;;;;5024620;28;89218;-73
2022/05/22 01:42:52;;;;;;;6.18;4.57;;;;;;;;;;5028282;28;90356;-74
2022/05/22 01:45:21;;;;;;;8.70;4.85;;;;;;;;;;5015413;28;90747;-73
2022/05/22 01:47:49;;;;;;;7.43;4.30;;;;;;;;;;5015250;28;90239;-73
2022/05/22 01:50:16;;;;;;;7.70;4.72;;;;;;;;;;5014448;28;89607;-73
2022/05/22 01:52:43;;;;;;;6.15;4.40;;;;;;;;;;5015084;28;90909;-73
2022/05/22 01:55:11;;;;;;;7.38;4.45;;;;;;;;;;5014847;28;88697;-73
2022/05/22 01:57:41;;;;;;;8.38;4.75;;;;;;;;;;5017190;28;88071;-73
2022/05/22 02:00:11;;;;;;;8.07;4.20;;;;;;;;;;5021619;28;89673;-73
2022/05/22 02:02:41;;;;;;;7.88;4.18;;;;;;;;;;5018383;28;89070;-73
2022/05/22 02:05:19;;;;;;;6.57;4.90;;;;;;;;;;5018514;28;90973;-74
2022/05/22 02:10:33;;;;;;;6.47;4.53;;;;;;;;;;5017435;28;90764;-73
2022/05/22 02:13:00;;;;;;;8.13;4.30;;;;;;;;;;5018257;28;91193;-74
2022/05/22 02:15:26;;;;;;;9.38;4.47;;;;;;;;;;5018111;28;89778;-73
2022/05/22 02:17:53;;;;;;;6.55;4.70;;;;;;;;;;5017477;28;90238;-74
2022/05/22 02:20:20;;;;;;;12.77;5.20;;;;;;;;;;5021716;28;90631;-74
2022/05/22 02:22:51;;;;;;;6.30;4.22;;;;;;;;;;5019874;28;88147;-73
2022/05/22 02:25:19;;;;;;;4.75;3.70;;;;;;;;;;5017578;28;91755;-73
2022/05/22 02:27:54;;;;;;;6.43;4.05;;;;;;;;;;5017870;28;89592;-73
2022/05/22 02:30:22;;;;;;;10.85;4.88;;;;;;;;;;5017996;28;89262;-74
2022/05/22 02:32:49;;;;;;;5.10;3.90;;;;;;;;;;5018220;28;89737;-73
2022/05/22 02:35:16;;;;;;;10.93;4.22;;;;;;;;;;5019082;28;88112;-74
2022/05/22 02:37:46;;;;;;;8.90;4.47;;;;;;;;;;5016872;28;91014;-74
2022/05/22 02:40:27;;;;;;;4.82;3.92;;;;;;;;;;5017778;28;91479;-74
2022/05/22 02:42:56;;;;;;;7.68;4.10;;;;;;;;;;5021835;28;88694;-73
2022/05/22 02:45:29;;;;;;;8.13;5.13;;;;;;;;;;5017622;28;90853;-75
2022/05/22 02:48:02;;;;;;;6.60;3.85;;;;;;;;;;5024580;28;88086;-74
2022/05/22 02:50:29;;;;;;;11.68;5.43;;;;;;;;;;5039250;28;88498;-74
2022/05/22 02:53:06;;;;;;;8.98;4.53;;;;;;;;;;5036455;28;91454;-73
2022/05/22 02:55:52;;;;;;;13.73;4.85;;;;;;;;;;5039316;28;88469;-73
2022/05/22 02:58:18;;;;;;;5.55;4.40;;;;;;;;;;5036994;28;90609;-73
2022/05/22 03:00:45;;;;;;;9.80;4.57;;;;;;;;;;5037644;28;91069;-73
2022/05/22 03:03:12;;;;;;;16.23;4.20;;;;;;;;;;5037682;28;90274;-73
2022/05/22 03:08:24;;;;;;;8.23;5.13;;;;;;;;;;5038512;27;88046;-73
2022/05/22 03:10:51;;;;;;;5.95;4.90;;;;;;;;;;5038244;28;90831;-73
2022/05/22 03:13:17;;;;;;;6.38;4.60;;;;;;;;;;5022319;28;90652;-73
2022/05/22 03:15:44;;;;;;;11.55;4.40;;;;;;;;;;5018803;28;88033;-73
2022/05/22 03:18:10;;;;;;;4.85;4.28;;;;;;;;;;5018323;28;89661;-73
2022/05/22 03:20:37;;;;;;;9.95;4.85;;;;;;;;;;5017800;28;88347;-74
2022/05/22 03:23:03;;;;;;;10.07;4.68;;;;;;;;;;5018057;28;89026;-73
2022/05/22 03:25:30;;;;;;;5.45;4.05;;;;;;;;;;5016872;28;89498;-73
2022/05/22 03:27:56;;;;;;;10.38;4.85;;;;;;;;;;5019315;28;91381;-73
2022/05/22 03:30:28;;;;;;;4.43;4.03;;;;;;;;;;5016765;28;89489;-74
2022/05/22 03:33:08;;;;;;;6.95;4.05;;;;;;;;;;5017038;28;91030;-73
2022/05/22 03:35:35;;;;;;;7.75;4.95;;;;;;;;;;5016043;28;90377;-73
2022/05/22 03:38:09;;;;;;;8.98;4.40;;;;;;;;;;5017015;28;88896;-73
2022/05/22 03:40:40;;;;;;;7.20;4.28;;;;;;;;;;5035380;28;91316;-73
2022/05/22 03:43:06;;;;;;;6.53;4.68;;;;;;;;;;5024205;28;88910;-73
2022/05/22 03:45:33;;;;;;;10.10;4.45;;;;;;;;;;5016657;28;91834;-73
2022/05/22 03:47:59;;;;;;;4.53;4.10;;;;;;;;;;5016056;28;90719;-73
2022/05/22 03:50:27;;;;;;;10.90;4.28;;;;;;;;;;5019546;28;89881;-73
2022/05/22 03:52:53;;;;;;;8.65;4.47;;;;;;;;;;5016868;28;91261;-73
2022/05/22 03:55:34;;;;;;;8.13;4.93;;;;;;;;;;5018392;28;88819;-74
2022/05/22 03:58:00;;;;;;;9.32;4.43;;;;;;;;;;5036969;28;91070;-73
2022/05/22 04:00:27;;;;;;;5.05;4.55;;;;;;;;;;5036995;28;89943;-73
2022/05/22 04:02:59;;;;;;;4.82;3.92;;;;;;;;;;5035974;28;89602;-73
2022/05/22 04:05:26;;;;;;;13.02;3.92;;;;;;;;;;5036688;28;90176;-73
2022/05/22 04:07:53;;;;;;;8.02;4.07;;;;;;;;;;5036038;28;92565;-73
2022/05/22 04:10:28;;;;;;;11.70;4.18;;;;;;;;;;5035734;28;90245;-74
2022/05/22 04:12:54;;;;;;;4.55;3.90;;;;;;;;;;5033426;28;88785;-74
2022/05/22 04:15:21;;;;;;;10.73;4.30;;;;;;;;;;5036081;28;89596;-74
2022/05/22 04:17:50;;;;;;;4.18;3.63;;;;;;;;;;5035781;28;90527;-73
2022/05/22 04:20:19;;;;;;;4.50;4.10;;;;;;;;;;5022267;27;91372;-73
2022/05/22 04:25:33;;;;;;;4.18;3.80;;;;;;;;;;5018028;28;89516;-73
2022/05/22 04:28:00;;;;;;;5.75;3.80;;;;;;;;;;5016228;28;88818;-73
2022/05/22 04:30:26;;;;;;;4.07;3.50;;;;;;;;;;5016957;28;88762;-73
2022/05/22 04:33:02;;;;;;;4.47;3.58;;;;;;;;;;5018300;28;90736;-73
2022/05/22 04:35:29;;;;;;;4.10;3.70;;;;;;;;;;5015414;28;88698;-73
2022/05/22 04:37:59;;;;;;;4.13;3.70;;;;;;;;;;5016921;28;88563;-73
2022/05/22 04:40:25;;;;;;;6.38;4.13;;;;;;;;;;5015668;28;91169;-73
2022/05/22 04:42:52;;;;;;;3.95;3.55;;;;;;;;;;5017462;28;88588;-73
2022/05/22 04:45:18;;;;;;;5.22;4.20;;;;;;;;;;5016418;28;89307;-73
2022/05/22 04:47:56;;;;;;;4.90;3.90;;;;;;;;;;5016479;28;90277;-74
2022/05/22 04:50:28;;;;;;;4.60;3.63;;;;;;;;;;5016318;28;88652;-73
2022/05/22 04:53:10;;;;;;;8.45;4.30;;;;;;;;;;5015901;28;88207;-73
2022/05/22 04:56:00;;;;;;;5.63;3.92;;;;;;;;;;5018760;28;91343;-74
2022/05/22 04:58:32;;;;;;;5.85;4.53;;;;;;;;;;5014341;28;89995;-73
2022/05/22 05:01:07;;;;;;;6.88;4.28;;;;;;;;;;5015911;28;90618;-73
2022/05/22 05:03:39;;;;;;;6.82;4.10;;;;;;;;;;5015899;28;90461;-74
2022/05/22 05:06:06;;;;;;;7.53;4.38;;;;;;;;;;5014982;28;89500;-73
2022/05/22 05:08:35;;;;;;;4.38;3.97;;;;;;;;;;5015253;28;88901;-74
2022/05/22 05:11:09;;;;;;;;;;;;;;;;;;5016420;28;88802;-73
2022/05/22 05:13:40;;;;;;;5.10;4.25;;;;;;;;;;4996144;28;89247;-73
2022/05/22 05:16:11;;;;;;;6.38;4.43;;;;;;;;;;5012832;28;90399;-73
2022/05/22 05:18:50;;;;;;;7.18;4.55;;;;;;;;;;5015994;28;90021;-73
2022/05/22 05:21:17;;;;;;;8.73;5.10;;;;;;;;;;5015503;28;91282;-73
2022/05/22 05:23:47;;;;;;;12.38;4.85;;;;;;;;;;5015124;28;89101;-73
2022/05/22 05:26:20;;;;;;;9.37;5.40;;;;;;;;;;5014777;28;91268;-74
2022/05/22 05:28:47;;;;;;;7.38;4.93;;;;;;;;;;5015259;28;88884;-74
2022/05/22 05:31:23;;;;;;;11.20;4.93;;;;;;;;;;5014917;28;88541;-74
2022/05/22 05:33:49;;;;;;;9.90;5.53;;;;;;;;;;5014607;28;91135;-73
2022/05/22 05:36:34;;;;;;;9.57;5.60;;;;;;;;;;5014548;28;91031;-73
2022/05/22 05:39:19;;;;;;;11.00;5.68;;;;;;;;;;5016621;28;88041;-74
2022/05/22 05:42:08;;;;;;;14.88;6.22;;;;;;;;;;5010079;28;89617;-75
2022/05/22 05:44:35;;;;;;;11.02;6.95;;;;;;;;;;5014837;28;89011;-74
2022/05/22 05:47:22;;;;;;;10.93;6.97;;;;;;;;;;4983820;28;88057;-74
2022/05/22 05:50:07;;;;;;;16.17;7.63;;;;;;;;;;5014822;28;91761;-74
2022/05/22 05:52:48;;;;;;;13.25;8.02;;;;;;;;;;5015508;28;88915;-75
2022/05/22 05:55:41;;;;;;;13.88;7.55;;;;;;;;;;5020141;28;88521;-73
2022/05/22 05:58:41;;;;;;;13.13;8.30;;;;;;;;;;5034766;28;91173;-73
2022/05/22 06:01:14;;;;;;;19.50;8.05;;;;;;;;;;5034286;28;89621;-73
2022/05/22 06:03:40;;;;;;;10.23;7.38;;;;;;;;;;5025458;28;90558;-73
2022/05/22 06:06:08;;;;;;;14.77;9.32;;;;;;;;;;5017887;28;91194;-73
2022/05/22 06:08:37;;;;;;;13.10;8.20;;;;;;;;;;5014309;28;89299;-73
2022/05/22 06:11:38;;;;;;;14.57;8.40;;;;;;;;;;4973649;28;88096;-74
2022/05/22 06:14:15;;;;;;;12.23;7.90;;;;;;;;;;5005153;28;88514;-75
2022/05/22 06:16:42;;;;;;;11.77;7.72;;;;;;;;;;4993565;28;90649;-74
2022/05/22 06:19:11;;;;;;;14.48;6.85;;;;;;;;;;4998420;28;90366;-75
2022/05/22 06:21:37;;;;;;;14.27;6.70;;;;;;;;;;5014212;28;88048;-75
2022/05/22 06:24:08;;;;;;;14.63;5.97;;;;;;;;;;5013907;28;90655;-75
2022/05/22 06:27:03;;;;;;;9.05;5.28;;;;;;;;;;5014816;28;91072;-75
2022/05/22 06:30:08;;;;;;;15.15;5.15;;;;;;;;;;4996818;28;88742;-75
2022/05/22 06:32:53;;;;;;;12.27;4.95;;;;;;;;;;4995019;28;88320;-75
2022/05/22 06:35:40;;;;;;;9.75;4.40;;;;;;;;;;4993930;28;90760;-75
2022/05/22 06:41:38;;;;;;;10.48;5.18;;;;;;;;;;5027467;27;91189;-75
2022/05/22 06:44:23;;;;;;;8.15;3.97;;;;;;;;;;5009489;28;89128;-75
2022/05/22 06:47:21;;;;;;;11.25;4.88;;;;;;;;;;5031097;28;89580;-75
2022/05/22 06:50:10;;;;;;;11.35;4.45;;;;;;;;;;4980738;28;89162;-75
2022/05/22 06:52:43;;;;;;;9.32;3.88;;;;;;;;;;5011606;28;90705;-75
2022/05/22 06:55:28;;;;;;;16.17;4.10;;;;;;;;;;5042542;27;91825;-75
2022/05/22 06:58:30;;;;;;;;;;;;;;;;;;5017023;28;90495;-75
2022/05/22 07:01:16;;;;;;;9.65;3.90;;;;;;;;;;5037122;28;88525;-75
2022/05/22 07:04:10;;;;;;;10.18;3.80;;;;;;;;;;5021804;28;88194;-75
2022/05/22 07:06:48;;;;;;;11.90;4.50;;;;;;;;;;5016654;28;91020;-75
2022/05/22 07:09:15;;;;;;;7.72;3.47;;;;;;;;;;5017747;28;88630;-73
2022/05/22 07:11:53;;;;;;;16.13;4.85;;;;;;;;;;5014608;28;89314;-73
2022/05/22 07:14:32;;;;;;;16.48;4.72;;;;;;;;;;5014531;28;90264;-74
2022/05/22 07:17:11;;;;;;;12.07;4.47;;;;;;;;;;5000247;28;88073;-74
2022/05/22 07:19:58;;;;;;;10.82;4.30;;;;;;;;;;5011594;28;88162;-73
2022/05/22 07:22:42;;;;;;;11.80;3.85;;;;;;;;;;5016720;28;88487;-73
2022/05/22 07:25:27;;;;;;;10.75;4.00;;;;;;;;;;5017405;28;88311;-75
2022/05/22 07:28:14;;;;;;;7.80;3.55;;;;;;;;;;5017999;28;88034;-74
2022/05/22 07:30:53;;;;;;;7.22;3.28;;;;;;;;;;5017645;28;90753;-74
2022/05/22 07:33:38;;;;;;;11.93;4.10;;;;;;;;;;5016695;28;88252;-74
2022/05/22 07:36:17;;;;;;;7.97;3.63;;;;;;;;;;5012553;28;90464;-74
2022/05/22 07:39:03;;;;;;;6.70;2.83;;;;;;;;;;5002415;28;88887;-74
2022/05/22 07:41:43;;;;;;;10.17;3.47;;;;;;;;;;5015672;28;91401;-72
2022/05/22 07:44:26;;;;;;;9.93;3.25;;;;;;;;;;4996759;28;89479;-71
2022/05/22 07:47:02;;;;;;;6.85;2.85;;;;;;;;;;4994490;28;91010;-71
2022/05/22 07:52:55;;;;;;;10.27;2.97;;;;;;;;;;5006275;28;88886;-71
2022/05/22 07:55:39;;;;;;;7.13;3.55;;;;;;;;;;5015181;28;88363;-71
2022/05/22 07:58:23;;;;;;;5.72;2.53;;;;;;;;;;5016868;28;87571;-71
2022/05/22 08:00:57;;;;;;;7.82;3.20;;;;;;;;;;5011202;28;90368;-72
2022/05/22 08:03:42;;;;;;;7.30;2.95;;;;;;;;;;4994956;28;88325;-71
2022/05/22 08:06:17;;;;;;;12.80;3.35;;;;;;;;;;5009510;28;89758;-72
2022/05/22 08:08:44;;;;;;;7.00;3.05;;;;;;;;;;5001418;28;88176;-71
2022/05/22 08:11:15;;;;;;;7.43;3.00;;;;;;;;;;5009535;28;90502;-71
2022/05/22 08:13:49;;;;;;;6.85;3.67;;;;;;;;;;5002965;28;90849;-70
2022/05/22 08:16:18;;;;;;;9.40;3.15;;;;;;;;;;4999769;28;89883;-71
2022/05/22 08:18:57;;;;;;;6.75;2.70;;;;;;;;;;4998708;28;88164;-71
2022/05/22 08:21:23;;;;;;;7.03;3.20;;;;;;;;;;5013819;28;88543;-71
2022/05/22 08:23:50;;;;;;;6.55;2.55;;;;;;;;;;5027251;28;88660;-71
2022/05/22 08:26:22;;;;;;;;;;;;;;;;;;5011006;28;90039;-73
2022/05/22 08:28:49;;;;;;;6.90;2.35;;;;;;;;;;5013892;28;117304;-72
2022/05/22 08:31:16;;;;;;;9.15;2.67;;;;;;;;;;4999042;28;89050;-74
2022/05/22 08:33:48;;;;;;;10.30;3.50;;;;;;;;;;5012540;28;89148;-74
2022/05/22 08:36:15;;;;;;;8.25;2.92;;;;;;;;;;5016470;28;89026;-75
2022/05/22 08:38:41;;;;;;;10.48;2.80;;;;;;;;;;4998450;28;88733;-74
2022/05/22 08:41:18;;;;;;;6.65;2.80;;;;;;;;;;4997064;28;89718;-74
2022/05/22 08:43:56;;;;;;;7.07;2.40;;;;;;;;;;4996655;28;89427;-74
2022/05/22 08:46:29;;;;;;;6.68;2.78;;;;;;;;;;4997015;28;88674;-74
2022/05/22 08:49:04;;;;;;;8.07;2.67;;;;;;;;;;5000821;28;88680;-74
2022/05/22 08:51:41;;;;;;;11.60;2.88;;;;;;;;;;4996009;28;89355;-74
2022/05/22 08:54:12;;;;;;;6.32;2.70;;;;;;;;;;4995929;28;89518;-74
2022/05/22 08:59:29;;;;;;;5.03;2.53;;;;;;;;;;4996606;28;89092;-74
2022/05/22 09:02:01;;;;;;;4.72;1.83;;;;;;;;;;5002560;28;89577;-72
2022/05/22 09:04:31;;;;;;;5.10;1.92;;;;;;;;;;5016191;28;89890;-72
2022/05/22 09:07:21;;;;;;;5.78;2.30;;;;;;;;;;5006276;28;88187;-75
2022/05/22 09:09:57;;;;;;;7.75;2.60;;;;;;;;;;5006696;28;90074;-74
2022/05/22 09:12:50;;;;;;;6.43;2.38;;;;;;;;;;5018124;28;89738;-74
2022/05/22 09:15:37;;;;;;;5.65;2.38;;;;;;;;;;5008487;28;88633;-74
2022/05/22 09:18:33;;;;;;;4.20;2.15;;;;;;;;;;4998561;28;89201;-74
2022/05/22 09:21:38;;;;;;;6.03;2.47;;;;;;;;;;5016877;28;89003;-74
2022/05/22 09:24:05;;;;;;;5.57;2.10;;;;;;;;;;4974320;28;88883;-75
2022/05/22 09:26:37;;;;;;;4.60;2.58;;;;;;;;;;4967755;28;88725;-75
2022/05/22 09:29:11;;;;;;;7.80;2.33;;;;;;;;;;4975747;28;89240;-75
2022/05/22 09:31:45;;;;;;;5.57;2.45;;;;;;;;;;4996242;28;89621;-75
2022/05/22 09:34:11;;;;;;;6.60;2.15;;;;;;;;;;4996135;28;89629;-75
2022/05/22 09:36:47;;;;;;;7.22;2.28;;;;;;;;;;4998750;28;88473;-75
2022/05/22 09:39:44;;;;;;;9.82;2.13;;;;;;;;;;5013648;28;89401;-74
2022/05/22 09:42:21;;;;;;;4.15;2.08;;;;;;;;;;5017075;28;88674;-74
2022/05/22 09:44:48;;;;;;;5.28;1.73;;;;;;;;;;5016601;28;88266;-74
2022/05/22 09:47:29;;;;;;;5.78;2.22;;;;;;;;;;5015463;28;88840;-75
2022/05/22 09:50:10;;;;;;;5.97;2.45;;;;;;;;;;5015840;28;88851;-74
2022/05/22 09:52:55;;;;;;;7.43;2.90;;;;;;;;;;5016006;28;89734;-74
2022/05/22 09:55:24;;;;;;;7.90;3.03;;;;;;;;;;5008168;28;90247;-74
2022/05/22 09:58:09;;;;;;;6.10;2.13;;;;;;;;;;4995955;28;88332;-74
2022/05/22 10:00:44;;;;;;;4.18;2.10;;;;;;;;;;4998584;28;88933;-74
2022/05/22 10:03:16;;;;;;;8.00;2.42;;;;;;;;;;5008696;28;88004;-74
2022/05/22 10:05:46;;;;;;;7.60;2.95;;;;;;;;;;5015390;28;89424;-74
2022/05/22 10:08:30;;;;;;;4.22;2.10;;;;;;;;;;5015536;28;88294;-74
2022/05/22 10:11:13;;;;;;;8.32;3.50;;;;;;;;;;5016198;28;88081;-74
2022/05/22 10:13:57;;;;;;;6.53;2.60;;;;;;;;;;5016071;28;89581;-74
2022/05/22 10:16:24;;;;;;;9.65;2.88;;;;;;;;;;5014531;28;90522;-74
2022/05/22 10:18:50;;;;;;;3.70;2.00;;;;;;;;;;5017790;28;89093;-75
2022/05/22 10:21:19;;;;;;;4.38;2.38;;;;;;;;;;5019187;28;89145;-74
2022/05/22 10:23:54;;;;;;;5.45;2.70;;;;;;;;;;5022404;28;88785;-75
2022/05/22 10:26:27;;;;;;;12.05;2.70;;;;;;;;;;5019546;28;88555;-74
2022/05/22 10:29:03;;;;;;;7.38;2.33;;;;;;;;;;5018892;28;88694;-74
2022/05/22 10:31:47;;;;;;;5.60;2.00;;;;;;;;;;5018803;28;88012;-74
2022/05/22 10:34:21;;;;;;;3.67;2.08;;;;;;;;;;5019470;28;88757;-74
2022/05/22 10:36:51;;;;;;;2.55;1.60;;;;;;;;;;5018220;28;89809;-74
2022/05/22 10:39:19;;;;;;;5.07;2.00;;;;;;;;;;5019426;28;88691;-74
2022/05/22 10:44:57;;;;;;;4.45;2.17;;;;;;;;;;5020093;28;89350;-74
2022/05/22 10:47:27;;;;;;;3.72;1.85;;;;;;;;;;5021331;28;89246;-74
2022/05/22 10:49:54;;;;;;;3.25;1.63;;;;;;;;;;5015631;28;89809;-74
2022/05/22 10:52:25;;;;;;;6.47;2.13;;;;;;;;;;5019274;28;88144;-74
2022/05/22 10:54:53;;;;;;;7.30;1.88;;;;;;;;;;5016851;28;89931;-74
2022/05/22 10:57:21;;;;;;;7.63;2.08;;;;;;;;;;5018319;28;89888;-75
2022/05/22 10:59:48;;;;;;;5.57;2.20;;;;;;;;;;5019574;28;87872;-73
2022/05/22 11:02:18;;;;;;;4.50;1.85;;;;;;;;;;5019059;28;88173;-73
2022/05/22 11:04:46;;;;;;;6.30;1.95;;;;;;;;;;5017837;28;91432;-74
2022/05/22 11:07:14;;;;;;;9.95;2.58;;;;;;;;;;5021170;28;88741;-74
2022/05/22 11:09:45;;;;;;;6.25;2.08;;;;;;;;;;5018235;28;89600;-74
2022/05/22 11:12:20;;;;;;;3.28;1.73;;;;;;;;;;5018164;28;89739;-74
2022/05/22 11:14:46;;;;;;;4.28;2.03;;;;;;;;;;5018817;28;90694;-74
2022/05/22 11:17:14;;;;;;;7.53;1.83;;;;;;;;;;5018402;28;89054;-74
2022/05/22 11:19:42;;;;;;;3.17;1.70;;;;;;;;;;5017945;28;89129;-74
2022/05/22 11:22:29;;;;;;;2.97;1.77;;;;;;;;;;5018423;28;89506;-74
2022/05/22 11:24:58;;;;;;;4.80;1.77;;;;;;;;;;5018976;28;88016;-74
2022/05/22 11:27:25;;;;;;;3.33;1.45;;;;;;;;;;5015816;28;89290;-73
2022/05/22 11:29:51;;;;;;;5.80;2.13;;;;;;;;;;5011093;28;89063;-74
2022/05/22 11:32:21;;;;;;;3.83;1.92;;;;;;;;;;5017243;28;88778;-74
2022/05/22 11:34:47;;;;;;;7.55;2.50;;;;;;;;;;5016177;28;90437;-74
2022/05/22 11:37:35;;;;;;;3.35;1.90;;;;;;;;;;5010955;28;89123;-75
2022/05/22 11:40:17;;;;;;;5.40;2.20;;;;;;;;;;5001039;28;88679;-73
2022/05/22 11:42:43;;;;;;;5.57;2.60;;;;;;;;;;4997806;28;89108;-73
2022/05/22 11:45:15;;;;;;;7.38;2.53;;;;;;;;;;4997882;28;89630;-73
2022/05/22 11:48:00;;;;;;;4.90;1.95;;;;;;;;;;4997180;28;88931;-73
2022/05/22 11:50:46;;;;;;;3.80;2.25;;;;;;;;;;5003344;28;89436;-73
2022/05/22 11:53:22;;;;;;;4.88;2.30;;;;;;;;;;5020178;28;88721;-73
2022/05/22 11:56:03;;;;;;;4.45;2.35;;;;;;;;;;5002352;28;89339;-73
2022/05/22 11:58:35;;;;;;;5.18;2.30;;;;;;;;;;5005320;28;89891;-72
2022/05/22 12:01:03;;;;;;;2.80;1.85;;;;;;;;;;4999898;28;89508;-72
2022/05/22 12:03:48;;;;;;;5.85;2.22;;;;;;;;;;5015777;28;89924;-73
2022/05/22 12:06:14;;;;;;;4.47;2.13;;;;;;;;;;4998067;28;89940;-73
2022/05/22 12:08:55;;;;;;;5.45;2.10;;;;;;;;;;5010388;28;89381;-73
2022/05/22 12:11:51;;;;;;;6.03;1.88;;;;;;;;;;5006932;28;89319;-73
2022/05/22 12:14:36;;;;;;;8.25;2.58;;;;;;;;;;4997232;28;89590;-74
2022/05/22 12:17:10;;;;;;;7.75;1.90;;;;;;;;;;5001127;28;87664;-73
2022/05/22 12:19:39;;;;;;;5.38;2.25;;;;;;;;;;4997002;28;88934;-74
2022/05/22 12:22:06;;;;;;;6.45;2.40;;;;;;;;;;5008990;28;88751;-73
2022/05/22 12:24:35;;;;;;;4.30;2.38;;;;;;;;;;5016128;28;88798;-73
2022/05/22 12:27:21;;;;;;;10.50;2.67;;;;;;;;;;5012190;28;88868;-73
2022/05/22 12:29:53;;;;;;;5.35;2.08;;;;;;;;;;5014129;28;88673;-73
2022/05/22 12:32:24;;;;;;;5.05;2.03;;;;;;;;;;5004733;28;88597;-73
2022/05/22 12:34:53;;;;;;;9.00;2.60;;;;;;;;;;5005423;28;89071;-73
2022/05/22 12:37:34;;;;;;;4.63;1.90;;;;;;;;;;4997752;28;88677;-73
2022/05/22 12:40:07;;;;;;;15.13;2.13;;;;;;;;;;5019777;28;89541;-72
2022/05/22 12:42:36;;;;;;;5.50;2.10;;;;;;;;;;5007256;28;87670;-73
2022/05/22 12:45:03;;;;;;;8.57;2.20;;;;;;;;;;5014711;28;88352;-73
2022/05/22 12:47:34;;;;;;;6.05;2.40;;;;;;;;;;4998833;28;89929;-72
2022/05/22 12:50:00;;;;;;;5.43;1.98;;;;;;;;;;4995481;28;88864;-76
2022/05/22 12:52:28;;;;;;;5.47;2.30;;;;;;;;;;5002687;28;90410;-74
2022/05/22 12:54:56;;;;;;;9.10;2.20;;;;;;;;;;4997037;28;89750;-74
2022/05/22 12:57:23;;;;;;;5.13;2.13;;;;;;;;;;5012972;28;87978;-74
2022/05/22 12:59:54;;;;;;;5.57;2.30;;;;;;;;;;4999878;28;88904;-75
2022/05/22 13:02:37;;;;;;;8.00;2.85;;;;;;;;;;5015857;28;88653;-74
2022/05/22 13:05:12;;;;;;;4.43;2.22;;;;;;;;;;5013140;28;88361;-75
2022/05/22 13:07:38;;;;;;;3.55;2.28;;;;;;;;;;5014447;28;89256;-74
2022/05/22 13:10:20;;;;;;;5.32;2.40;;;;;;;;;;5001616;28;88184;-74
2022/05/22 13:12:52;;;;;;;8.25;2.10;;;;;;;;;;4997018;28;89531;-74
2022/05/22 13:15:22;;;;;;;6.43;2.50;;;;;;;;;;4997262;28;91601;-75
2022/05/22 13:17:53;;;;;;;7.15;1.90;;;;;;;;;;4996034;28;88100;-74
2022/05/22 13:20:34;;;;;;;5.18;2.60;;;;;;;;;;4996724;28;89567;-74
2022/05/22 13:23:06;;;;;;;7.05;2.75;;;;;;;;;;4999204;28;88239;-74
2022/05/22 13:25:44;;;;;;;4.73;2.43;;;;;;;;;;4996754;28;89976;-74
2022/05/22 13:28:19;;;;;;;5.28;2.38;;;;;;;;;;4996178;28;90029;-74
2022/05/22 13:30:48;;;;;;;7.45;2.97;;;;;;;;;;4996269;28;87994;-74
2022/05/22 13:33:15;;;;;;;5.63;2.75;;;;;;;;;;4997389;28;88663;-74
2022/05/22 13:35:53;;;;;;;5.70;2.45;;;;;;;;;;4996854;28;89199;-74
2022/05/22 13:38:20;;;;;;;10.23;2.80;;;;;;;;;;5011653;28;88532;-74
2022/05/22 13:40:56;;;;;;;5.25;2.40;;;;;;;;;;4997618;28;88740;-77
2022/05/22 13:43:41;;;;;;;8.05;2.70;;;;;;;;;;4996227;28;88667;-78
2022/05/22 13:46:13;;;;;;;9.20;2.85;;;;;;;;;;5015221;28;88769;-75
2022/05/22 13:48:40;;;;;;;5.65;2.28;;;;;;;;;;5032581;28;89416;-75
2022/05/22 13:54:18;;;;;;;6.22;2.67;;;;;;;;;;4999313;28;88635;-75
2022/05/22 13:56:44;;;;;;;5.53;2.83;;;;;;;;;;5003347;28;89294;-76
2022/05/22 13:59:23;;;;;;;9.30;4.13;;;;;;;;;;5016970;28;87799;-76
2022/05/22 14:01:50;;;;;;;7.95;3.47;;;;;;;;;;5007433;28;89257;-76
2022/05/22 14:04:17;;;;;;;8.82;3.20;;;;;;;;;;4997963;28;90091;-75
2022/05/22 14:06:47;;;;;;;7.38;2.60;;;;;;;;;;4997135;28;89422;-75
2022/05/22 14:09:24;;;;;;;11.18;3.58;;;;;;;;;;5011871;28;91243;-75
2022/05/22 14:11:52;;;;;;;7.28;3.00;;;;;;;;;;5016562;28;88861;-76
2022/05/22 14:14:26;;;;;;;5.63;3.00;;;;;;;;;;5012752;28;89411;-75
2022/05/22 14:17:03;;;;;;;13.27;3.25;;;;;;;;;;4997394;28;90465;-73
2022/05/22 14:19:33;;;;;;;10.55;3.47;;;;;;;;;;4999439;28;88629;-74
2022/05/22 14:22:08;;;;;;;5.53;2.90;;;;;;;;;;5010116;28;89529;-73
2022/05/22 14:24:54;;;;;;;7.32;2.97;;;;;;;;;;5011757;28;89082;-73
2022/05/22 14:27:29;;;;;;;8.15;3.58;;;;;;;;;;5013745;28;89623;-73
2022/05/22 14:30:11;;;;;;;8.57;3.30;;;;;;;;;;5017656;28;89865;-73
2022/05/22 14:32:39;;;;;;;12.60;2.80;;;;;;;;;;5019818;28;90643;-74
2022/05/22 14:35:10;;;;;;;6.80;2.38;;;;;;;;;;5013942;28;89534;-74
2022/05/22 14:37:39;;;;;;;8.23;3.27;;;;;;;;;;5010026;28;89491;-74
2022/05/22 14:40:12;;;;;;;8.77;2.80;;;;;;;;;;5000270;28;88738;-73
2022/05/22 14:42:43;;;;;;;7.80;3.30;;;;;;;;;;5003745;28;88360;-73
2022/05/22 14:45:24;;;;;;;5.25;2.63;;;;;;;;;;5018672;28;88969;-74
2022/05/22 14:48:09;;;;;;;5.38;2.50;;;;;;;;;;5013267;28;88359;-74
2022/05/22 14:50:36;;;;;;;10.00;3.05;;;;;;;;;;4997432;28;89467;-73
2022/05/22 14:53:04;;;;;;;10.40;2.58;;;;;;;;;;4998130;28;90034;-73
2022/05/22 14:55:36;;;;;;;8.02;3.22;;;;;;;;;;5001425;28;88680;-73
2022/05/22 14:58:30;;;;;;;6.65;3.83;;;;;;;;;;5021065;28;90252;-73
2022/05/22 15:00:59;;;;;;;7.15;3.85;;;;;;;;;;5002840;28;88288;-73
2022/05/22 15:03:31;;;;;;;10.25;3.30;;;;;;;;;;5013904;28;88698;-73
2022/05/22 15:05:57;;;;;;;7.88;2.95;;;;;;;;;;5003231;28;88724;-73
2022/05/22 15:08:24;;;;;;;8.38;3.03;;;;;;;;;;5017910;28;88840;-74
2022/05/22 15:11:23;;;;;;;11.48;4.43;;;;;;;;;;5009187;28;89806;-74
2022/05/22 15:13:58;;;;;;;5.68;2.83;;;;;;;;;;5004843;28;89207;-74
2022/05/22 15:16:25;;;;;;;6.90;4.05;;;;;;;;;;5012857;28;87845;-74
2022/05/22 15:21:41;;;;;;;5.03;3.28;;;;;;;;;;5013951;28;88043;-74
2022/05/22 15:27:03;;;;;;;10.68;3.67;;;;;;;;;;5007890;28;89685;-73
2022/05/22 15:29:31;;;;;;;6.50;3.17;;;;;;;;;;5013678;28;88848;-74
2022/05/22 15:32:09;;;;;;;7.63;4.07;;;;;;;;;;5015762;28;88613;-74
2022/05/22 15:34:35;;;;;;;7.80;3.80;;;;;;;;;;5016173;28;89127;-75
2022/05/22 15:37:18;;;;;;;11.27;3.33;;;;;;;;;;4999624;28;89603;-74
2022/05/22 15:39:44;;;;;;;9.52;3.30;;;;;;;;;;5010460;28;91342;-73
2022/05/22 15:42:19;;;;;;;9.80;3.67;;;;;;;;;;5012077;28;88111;-74
2022/05/22 15:44:51;;;;;;;8.93;3.75;;;;;;;;;;5016514;28;88820;-75
2022/05/22 15:47:25;;;;;;;12.57;3.65;;;;;;;;;;5016636;28;90100;-75